createdAt,value
2022-12-08T00:02:08.720Z,28.15
2022-12-08T00:04:39.787Z,27.62
2022-12-08T00:07:28.375Z,25.20
2022-12-08T00:09:57.646Z,25.72
2022-12-08T00:12:26.969Z,25.90
2022-12-08T00:14:56.186Z,23.83
2022-12-08T00:17:25.445Z,21.42
2022-12-08T00:19:54.626Z,19.65
2022-12-08T00:22:23.877Z,18.60
2022-12-08T00:24:53.074Z,16.60
2022-12-08T00:27:22.421Z,17.70
2022-12-08T00:29:51.650Z,16.70
2022-12-08T00:32:21.072Z,14.58
2022-12-08T00:34:50.428Z,15.03
2022-12-08T00:37:19.683Z,18.48
2022-12-08T00:39:48.921Z,12.63
2022-12-08T00:42:18.137Z,12.63
2022-12-08T00:44:48.724Z,12.68
2022-12-08T00:47:22.221Z,10.38
2022-12-08T00:49:48.936Z,15.90
2022-12-08T00:52:18.123Z,10.08
2022-12-08T00:54:47.372Z,11.12
2022-12-08T00:57:16.571Z,7.12
2022-12-08T00:59:45.808Z,9.75
2022-12-08T01:02:15.036Z,7.20
2022-12-08T01:04:44.391Z,6.35
2022-12-08T01:07:13.617Z,7.35
2022-12-08T01:09:42.889Z,5.08
2022-12-08T01:12:12.095Z,7.35
2022-12-08T01:14:41.383Z,7.20
2022-12-08T01:17:10.777Z,8.15
2022-12-08T01:19:40.203Z,8.55
2022-12-08T01:22:09.415Z,4.28
2022-12-08T01:24:38.623Z,5.85
2022-12-08T01:27:08.105Z,5.08
2022-12-08T01:29:37.389Z,8.50
2022-12-08T01:32:06.682Z,7.17
2022-12-08T01:34:36.168Z,5.00
2022-12-08T01:37:05.490Z,5.97
2022-12-08T01:39:35.677Z,3.27
2022-12-08T01:42:05.167Z,4.67
2022-12-08T01:44:40.704Z,3.75
2022-12-08T01:47:10.476Z,6.97
2022-12-08T01:49:39.684Z,5.08
2022-12-08T01:52:38.041Z,6.75
2022-12-08T01:55:13.668Z,5.42
2022-12-08T01:57:45.220Z,5.67
2022-12-08T02:00:17.253Z,4.80
2022-12-08T02:03:01.413Z,5.47
2022-12-08T02:05:33.456Z,5.67
2022-12-08T02:08:06.849Z,3.92
2022-12-08T02:10:39.139Z,5.55
2022-12-08T02:13:10.743Z,3.62
2022-12-08T02:16:16.888Z,3.17
2022-12-08T02:19:30.769Z,4.92
2022-12-08T02:22:11.621Z,3.25
2022-12-08T02:24:46.855Z,3.77
2022-12-08T02:27:35.666Z,3.35
2022-12-08T02:30:08.164Z,4.65
2022-12-08T02:35:36.114Z,3.77
2022-12-08T02:38:08.495Z,5.08
2022-12-08T02:40:52.346Z,6.30
2022-12-08T02:43:27.495Z,7.58
2022-12-08T02:46:00.292Z,7.10
2022-12-08T02:48:30.323Z,5.25
2022-12-08T02:50:59.543Z,4.45
2022-12-08T02:53:33.260Z,3.77
2022-12-08T02:56:05.805Z,9.55
2022-12-08T03:01:27.008Z,8.50
2022-12-08T03:04:05.077Z,2.90
2022-12-08T03:06:52.187Z,3.85
2022-12-08T03:09:27.385Z,6.05
2022-12-08T03:12:02.654Z,6.70
2022-12-08T03:14:33.227Z,7.95
2022-12-08T03:17:02.614Z,6.92
2022-12-08T03:19:36.711Z,6.78
2022-12-08T03:22:07.703Z,9.58
2022-12-08T03:24:39.604Z,7.55
2022-12-08T03:27:18.840Z,6.75
2022-12-08T03:29:54.403Z,8.23
2022-12-08T03:32:51.026Z,6.15
2022-12-08T03:35:23.391Z,6.75
2022-12-08T03:37:52.692Z,9.13
2022-12-08T03:40:22.267Z,12.55
2022-12-08T03:42:51.520Z,6.40
2022-12-08T03:45:21.587Z,6.78
2022-12-08T03:47:50.893Z,7.42
2022-12-08T03:50:20.110Z,9.15
2022-12-08T03:52:49.676Z,6.62
2022-12-08T03:55:18.986Z,9.30
2022-12-08T03:57:48.254Z,7.42
2022-12-08T04:00:18.172Z,6.87
2022-12-08T04:02:47.447Z,5.10
2022-12-08T04:05:16.743Z,13.72
2022-12-08T04:07:46.067Z,5.28
2022-12-08T04:10:15.466Z,5.92
2022-12-08T04:12:44.722Z,7.70
2022-12-08T04:15:14.000Z,5.83
2022-12-08T04:17:43.520Z,4.35
2022-12-08T04:20:13.239Z,3.27
2022-12-08T04:22:42.506Z,5.08
2022-12-08T04:25:11.888Z,6.97
2022-12-08T04:27:41.146Z,5.28
2022-12-08T04:30:11.018Z,6.35
2022-12-08T04:32:45.778Z,3.77
2022-12-08T04:35:11.345Z,6.28
2022-12-08T04:37:40.570Z,8.65
2022-12-08T04:40:10.622Z,5.28
2022-12-08T04:42:40.222Z,5.92
2022-12-08T04:45:10.144Z,4.75
2022-12-08T04:47:40.560Z,5.62
2022-12-08T04:50:10.766Z,6.17
2022-12-08T04:52:40.489Z,4.10
2022-12-08T04:55:10.112Z,6.70
2022-12-08T04:57:39.373Z,4.30
2022-12-08T05:00:09.092Z,4.30
2022-12-08T05:02:38.342Z,5.45
2022-12-08T05:05:08.447Z,6.47
2022-12-08T05:07:37.799Z,6.95
2022-12-08T05:10:08.284Z,5.28
2022-12-08T05:12:37.521Z,5.53
2022-12-08T05:15:07.767Z,9.95
2022-12-08T05:17:37.014Z,11.80
2022-12-08T05:20:08.760Z,9.38
2022-12-08T05:22:38.067Z,11.38
2022-12-08T05:25:08.063Z,7.58
2022-12-08T05:27:39.060Z,11.38
2022-12-08T05:30:08.864Z,9.60
2022-12-08T05:32:38.089Z,11.90
2022-12-08T05:35:08.349Z,10.68
2022-12-08T05:37:37.553Z,8.95
2022-12-08T05:40:08.045Z,10.38
2022-12-08T05:42:37.458Z,9.20
2022-12-08T05:45:07.390Z,10.35
2022-12-08T05:47:36.620Z,9.08
2022-12-08T05:50:07.371Z,6.85
2022-12-08T05:52:36.988Z,8.60
2022-12-08T05:55:06.908Z,6.95
2022-12-08T05:57:36.514Z,13.93
2022-12-08T06:00:07.610Z,9.65
2022-12-08T06:02:38.758Z,9.03
2022-12-08T06:05:08.914Z,7.95
2022-12-08T06:07:38.202Z,10.72
2022-12-08T06:10:08.695Z,9.68
2022-12-08T06:12:37.986Z,11.95
2022-12-08T06:15:07.917Z,15.93
2022-12-08T06:17:37.204Z,8.25
2022-12-08T06:20:08.067Z,10.18
2022-12-08T06:22:37.800Z,9.00
2022-12-08T06:25:10.291Z,10.13
2022-12-08T06:27:39.998Z,8.60
2022-12-08T06:30:09.876Z,10.13
2022-12-08T06:32:39.115Z,8.63
2022-12-08T06:35:09.014Z,13.80
2022-12-08T06:37:38.434Z,10.18
2022-12-08T06:40:08.948Z,11.53
2022-12-08T06:42:43.937Z,7.97
2022-12-08T06:45:15.871Z,13.35
2022-12-08T06:47:45.147Z,10.28
2022-12-08T06:50:15.136Z,14.98
2022-12-08T06:52:56.900Z,13.22
2022-12-08T06:55:42.713Z,11.50
2022-12-08T06:57:51.164Z,10.35
2022-12-08T07:00:20.050Z,9.45
2022-12-08T07:02:49.754Z,5.92
2022-12-08T07:05:19.164Z,4.62
2022-12-08T07:07:48.500Z,5.33
2022-12-08T07:10:17.892Z,6.10
2022-12-08T07:12:47.164Z,6.20
2022-12-08T07:15:16.510Z,4.75
2022-12-08T07:17:45.773Z,5.87
2022-12-08T07:20:15.321Z,5.92
2022-12-08T07:22:49.993Z,6.12
2022-12-08T07:25:20.223Z,9.63
2022-12-08T07:27:51.636Z,7.58
2022-12-08T07:30:21.074Z,9.20
2022-12-08T07:32:50.319Z,8.00
2022-12-08T07:35:19.605Z,5.47
2022-12-08T07:37:48.995Z,9.28
2022-12-08T07:40:18.288Z,5.50
2022-12-08T07:42:47.533Z,5.40
2022-12-08T07:45:16.882Z,6.83
2022-12-08T07:47:46.157Z,7.55
2022-12-08T07:50:15.434Z,7.25
2022-12-08T07:52:44.700Z,5.95
2022-12-08T07:55:13.922Z,7.03
2022-12-08T07:57:43.345Z,11.15
2022-12-08T08:00:13.359Z,10.48
2022-12-08T08:02:43.214Z,12.00
2022-12-08T08:05:13.102Z,11.25
2022-12-08T08:07:43.800Z,8.25
2022-12-08T08:10:13.202Z,11.08
2022-12-08T08:12:42.432Z,7.30
2022-12-08T08:15:11.732Z,9.83
2022-12-08T08:17:41.102Z,8.73
2022-12-08T08:20:11.322Z,6.97
2022-12-08T08:22:40.547Z,7.90
2022-12-08T08:25:10.290Z,9.18
2022-12-08T08:27:39.583Z,7.80
2022-12-08T08:30:15.232Z,8.58
2022-12-08T08:32:42.203Z,6.67
2022-12-08T08:35:11.597Z,10.60
2022-12-08T08:37:44.337Z,7.67
2022-12-08T08:40:12.153Z,12.28
2022-12-08T08:42:41.494Z,12.15
2022-12-08T08:45:11.372Z,9.70
2022-12-08T08:47:40.605Z,8.80
2022-12-08T08:50:10.105Z,7.50
2022-12-08T08:52:39.424Z,9.95
2022-12-08T08:55:08.997Z,11.03
2022-12-08T08:57:38.317Z,9.38
2022-12-08T09:00:10.180Z,6.42
2022-12-08T09:02:39.988Z,5.60
2022-12-08T09:05:09.985Z,8.73
2022-12-08T09:07:39.358Z,8.48
2022-12-08T09:10:09.716Z,8.03
2022-12-08T09:12:38.956Z,8.60
2022-12-08T09:15:08.746Z,8.30
2022-12-08T09:17:38.572Z,7.42
2022-12-08T09:20:08.779Z,7.95
2022-12-08T09:22:37.995Z,9.38
2022-12-08T09:25:07.798Z,8.78
2022-12-08T09:27:37.010Z,5.42
2022-12-08T09:30:07.666Z,6.85
2022-12-08T09:32:37.115Z,10.03
2022-12-08T09:35:06.593Z,7.78
2022-12-08T09:37:35.807Z,9.88
2022-12-08T09:40:07.415Z,9.78
2022-12-08T09:42:40.125Z,13.32
2022-12-08T09:45:14.106Z,13.85
2022-12-08T09:47:55.196Z,8.48
2022-12-08T09:50:30.510Z,8.58
2022-12-08T09:53:03.672Z,8.93
2022-12-08T09:55:53.963Z,9.85
2022-12-08T09:58:59.735Z,14.20
2022-12-08T10:01:34.036Z,9.70
2022-12-08T10:04:04.301Z,7.90
2022-12-08T10:06:39.864Z,9.33
2022-12-08T10:09:31.782Z,7.85
2022-12-08T10:12:19.155Z,10.20
2022-12-08T10:14:51.809Z,10.48
2022-12-08T10:17:26.881Z,9.70
2022-12-08T10:20:01.691Z,11.78
2022-12-08T10:22:39.838Z,7.92
2022-12-08T10:25:24.578Z,3.47
2022-12-08T10:27:55.394Z,3.20
2022-12-08T10:30:24.677Z,5.22
2022-12-08T10:32:55.421Z,3.27
2022-12-08T10:35:25.619Z,3.30
2022-12-08T10:38:05.280Z,2.30
2022-12-08T10:40:45.306Z,4.10
2022-12-08T10:43:12.744Z,3.15
2022-12-08T10:45:43.300Z,3.72
2022-12-08T10:48:20.513Z,3.90
2022-12-08T10:50:52.899Z,3.87
2022-12-08T10:53:25.103Z,3.90
2022-12-08T10:56:06.692Z,4.87
2022-12-08T10:58:43.260Z,3.50
2022-12-08T11:01:24.601Z,3.98
2022-12-08T11:03:56.710Z,4.37
2022-12-08T11:06:33.907Z,3.50
2022-12-08T11:09:06.049Z,4.67
2022-12-08T11:11:56.752Z,3.45
2022-12-08T11:14:29.307Z,5.20
2022-12-08T11:19:43.627Z,5.25
2022-12-08T11:22:33.455Z,6.40
2022-12-08T11:25:11.586Z,6.20
2022-12-08T11:27:46.752Z,8.98
2022-12-08T11:30:19.241Z,7.15
2022-12-08T11:32:51.189Z,7.85
2022-12-08T11:35:28.330Z,8.60
2022-12-08T11:38:19.760Z,7.53
2022-12-08T11:40:34.869Z,9.80
2022-12-08T11:43:19.184Z,6.75
2022-12-08T11:45:51.356Z,5.65
2022-12-08T11:48:23.842Z,8.03
2022-12-08T11:50:56.195Z,6.33
2022-12-08T11:53:49.501Z,10.80
2022-12-08T11:56:21.495Z,14.85
2022-12-08T11:59:02.518Z,12.53
2022-12-08T12:01:31.768Z,10.50
2022-12-08T12:04:04.171Z,10.05
2022-12-08T12:06:54.410Z,10.82
2022-12-08T12:09:28.703Z,8.53
2022-12-08T12:12:19.315Z,8.98
2022-12-08T12:14:54.542Z,8.70
2022-12-08T12:17:38.923Z,9.50
2022-12-08T12:20:25.973Z,9.78
2022-12-08T12:23:19.411Z,7.35
2022-12-08T12:26:00.123Z,9.03
2022-12-08T12:28:32.243Z,8.35
2022-12-08T12:31:13.132Z,8.48
2022-12-08T12:33:44.450Z,10.10
2022-12-08T12:36:14.938Z,9.73
2022-12-08T12:39:08.805Z,13.70
2022-12-08T12:41:55.647Z,8.20
2022-12-08T12:44:28.395Z,11.90
2022-12-08T12:47:02.278Z,9.90
2022-12-08T12:49:46.196Z,10.35
2022-12-08T12:55:15.500Z,35.58
2022-12-08T12:57:56.926Z,22.20
2022-12-08T13:00:28.281Z,15.63
2022-12-08T13:02:59.386Z,13.40
2022-12-08T13:05:34.028Z,13.45
2022-12-08T13:08:08.368Z,10.05
2022-12-08T13:10:41.259Z,14.35
2022-12-08T13:13:19.309Z,11.48
2022-12-08T13:15:54.109Z,13.55
2022-12-08T13:18:50.435Z,31.37
2022-12-08T13:21:23.971Z,20.77
2022-12-08T13:24:14.312Z,25.02
2022-12-08T13:26:47.961Z,13.90
2022-12-08T13:29:26.880Z,13.70
2022-12-08T13:32:03.634Z,11.57
2022-12-08T13:34:54.379Z,10.95
2022-12-08T13:37:39.733Z,5.37
2022-12-08T13:40:13.192Z,5.53
2022-12-08T13:42:46.995Z,4.97
2022-12-08T13:46:10.815Z,5.03
2022-12-08T13:48:56.242Z,6.70
2022-12-08T13:54:45.506Z,7.65
2022-12-08T13:58:46.314Z,6.33
2022-12-08T14:01:23.515Z,7.90
2022-12-08T14:06:33.999Z,9.50
2022-12-08T14:09:10.742Z,7.72
2022-12-08T14:11:39.518Z,6.12
2022-12-08T14:14:32.607Z,5.85
2022-12-08T14:16:54.212Z,7.35
2022-12-08T14:19:28.590Z,7.40
2022-12-08T14:22:01.797Z,8.45
2022-12-08T14:24:36.160Z,10.08
2022-12-08T14:27:06.146Z,10.65
2022-12-08T14:29:52.555Z,16.30
2022-12-08T14:32:28.160Z,27.93
2022-12-08T14:35:09.395Z,51.58
2022-12-08T14:37:47.180Z,22.52
2022-12-08T14:40:39.818Z,19.92
2022-12-08T14:43:15.114Z,15.23
2022-12-08T14:45:47.825Z,14.35
2022-12-08T14:48:34.996Z,24.23
2022-12-08T14:51:23.404Z,14.50
2022-12-08T14:54:05.012Z,10.03
2022-12-08T14:56:46.448Z,9.08
2022-12-08T14:59:21.387Z,8.10
2022-12-08T15:01:53.274Z,5.50
2022-12-08T15:04:30.195Z,5.37
2022-12-08T15:07:01.870Z,8.43
2022-12-08T15:09:37.366Z,6.63
2022-12-08T15:12:09.606Z,9.45
2022-12-08T15:14:57.006Z,22.82
2022-12-08T15:17:43.627Z,17.87
2022-12-08T15:20:45.563Z,6.22
2022-12-08T15:23:27.501Z,13.53
2022-12-08T15:25:57.412Z,13.55
2022-12-08T15:28:30.247Z,9.38
2022-12-08T15:31:00.412Z,11.60
2022-12-08T15:33:29.918Z,8.63
2022-12-08T15:35:59.250Z,8.98
2022-12-08T15:38:29.663Z,12.58
2022-12-08T15:40:59.606Z,10.98
2022-12-08T15:43:28.882Z,9.70
2022-12-08T15:45:59.821Z,12.95
2022-12-08T15:48:30.761Z,13.20
2022-12-08T15:51:00.268Z,17.75
2022-12-08T15:53:30.073Z,15.58
2022-12-08T15:58:53.070Z,15.78
2022-12-08T16:01:02.019Z,10.65
2022-12-08T16:06:50.832Z,10.82
2022-12-08T16:08:49.538Z,11.93
2022-12-08T16:14:03.468Z,10.28
2022-12-08T16:16:30.708Z,11.85
2022-12-08T16:19:00.028Z,9.73
2022-12-08T16:22:04.858Z,12.28
2022-12-08T16:24:06.072Z,15.80
2022-12-08T16:27:50.752Z,15.03
2022-12-08T16:29:05.136Z,14.70
2022-12-08T16:31:34.519Z,17.40
2022-12-08T16:34:03.891Z,15.88
2022-12-08T16:36:33.115Z,13.78
2022-12-08T16:39:02.427Z,14.23
2022-12-08T16:41:49.670Z,12.43
2022-12-08T16:44:19.053Z,18.52
2022-12-08T16:46:48.519Z,13.05
2022-12-08T16:49:17.737Z,11.18
2022-12-08T16:51:47.221Z,13.72
2022-12-08T16:54:16.801Z,14.87
2022-12-08T16:56:46.200Z,14.38
2022-12-08T16:59:15.794Z,22.70
2022-12-08T17:01:45.258Z,22.30
2022-12-08T17:04:31.757Z,27.13
2022-12-08T17:06:46.036Z,32.33
2022-12-08T17:09:15.292Z,27.02
2022-12-08T17:11:45.252Z,30.80
2022-12-08T17:14:15.222Z,31.27
2022-12-08T17:16:45.815Z,36.05
2022-12-08T17:19:15.572Z,40.52
2022-12-08T17:21:45.926Z,41.02
2022-12-08T17:24:20.185Z,43.08
2022-12-08T17:26:46.078Z,44.63
2022-12-08T17:29:15.318Z,42.83
2022-12-08T17:31:44.962Z,46.88
2022-12-08T17:34:14.812Z,56.42
2022-12-08T17:36:44.202Z,116.08
2022-12-08T17:39:18.607Z,68.28
2022-12-08T17:41:46.267Z,64.30
2022-12-08T17:44:18.322Z,62.53
2022-12-08T17:46:52.647Z,66.33
2022-12-08T17:49:25.358Z,60.38
2022-12-08T17:51:57.771Z,54.03
2022-12-08T17:56:58.206Z,68.67
2022-12-08T17:59:29.461Z,49.80
2022-12-08T18:02:00.087Z,58.50
2022-12-08T18:04:30.477Z,62.62
2022-12-08T18:07:01.350Z,57.83
2022-12-08T18:09:32.970Z,60.10
2022-12-08T18:12:02.280Z,63.92
2022-12-08T18:14:31.688Z,54.93
2022-12-08T18:17:01.029Z,51.50
2022-12-08T18:19:30.340Z,53.23
2022-12-08T18:21:59.893Z,55.40
2022-12-08T18:24:29.201Z,57.27
2022-12-08T18:26:58.599Z,56.28
2022-12-08T18:29:28.265Z,52.53
2022-12-08T18:31:57.526Z,60.08
2022-12-08T18:34:26.747Z,58.13
2022-12-08T18:36:56.070Z,59.45
2022-12-08T18:39:28.333Z,62.17
2022-12-08T18:41:59.048Z,64.30
2022-12-08T18:44:28.376Z,67.87
2022-12-08T18:46:57.785Z,64.80
2022-12-08T18:49:27.319Z,66.85
2022-12-08T18:51:56.562Z,60.50
2022-12-08T18:54:37.174Z,60.90
2022-12-08T18:56:57.424Z,69.50
2022-12-08T18:59:27.152Z,62.27
2022-12-08T19:01:57.683Z,61.77
2022-12-08T19:04:29.063Z,61.35
2022-12-08T19:06:58.925Z,63.40
2022-12-08T19:09:29.309Z,57.30
2022-12-08T19:11:58.583Z,58.35
2022-12-08T19:14:30.573Z,58.65
2022-12-08T19:17:00.034Z,55.45
2022-12-08T19:19:29.776Z,54.53
2022-12-08T19:21:59.007Z,56.35
2022-12-08T19:24:28.932Z,50.92
2022-12-08T19:26:58.160Z,44.48
2022-12-08T19:29:27.541Z,43.73
2022-12-08T19:31:57.440Z,44.95
2022-12-08T19:34:26.834Z,38.73
2022-12-08T19:36:56.039Z,40.08
2022-12-08T19:39:43.184Z,41.05
2022-12-08T19:42:35.479Z,44.63
2022-12-08T19:45:08.103Z,26.30
2022-12-08T19:47:37.697Z,37.90
2022-12-08T19:50:27.059Z,35.65
2022-12-08T19:52:56.786Z,36.25
2022-12-08T19:55:26.620Z,41.37
2022-12-08T19:57:57.031Z,31.52
2022-12-08T20:00:26.370Z,32.73
2022-12-08T20:02:58.506Z,36.25
2022-12-08T20:07:57.343Z,42.62
2022-12-08T20:10:34.338Z,32.80
2022-12-08T20:13:26.792Z,34.15
2022-12-08T20:18:54.264Z,36.00
2022-12-08T20:21:27.271Z,38.80
2022-12-08T20:24:05.090Z,44.08
2022-12-08T20:26:35.402Z,48.80
2022-12-08T20:29:05.136Z,54.50
2022-12-08T20:31:37.468Z,53.20
2022-12-08T20:34:11.329Z,58.00
2022-12-08T20:36:41.492Z,65.05
2022-12-08T20:39:19.336Z,61.53
2022-12-08T20:42:06.657Z,64.37
2022-12-08T20:44:47.575Z,66.05
2022-12-08T20:47:18.289Z,61.85
2022-12-08T20:49:49.412Z,95.75
2022-12-08T20:52:22.741Z,87.97
2022-12-08T20:54:59.444Z,69.70
2022-12-08T20:57:30.336Z,67.42
2022-12-08T21:00:00.814Z,74.12
2022-12-08T21:02:30.310Z,79.42
2022-12-08T21:05:00.107Z,67.80
2022-12-08T21:07:29.567Z,66.33
2022-12-08T21:09:58.833Z,57.93
2022-12-08T21:12:28.373Z,57.50
2022-12-08T21:14:57.715Z,58.52
2022-12-08T21:17:27.353Z,57.05
2022-12-08T21:19:56.956Z,63.92
2022-12-08T21:22:26.756Z,60.15
2022-12-08T21:24:56.047Z,58.78
2022-12-08T21:27:25.806Z,59.18
2022-12-08T21:29:55.251Z,62.48
2022-12-08T21:32:30.088Z,56.20
2022-12-08T21:34:58.038Z,58.45
2022-12-08T21:37:28.029Z,67.70
2022-12-08T21:39:58.184Z,58.08
2022-12-08T21:42:46.250Z,56.37
2022-12-08T21:45:18.476Z,61.05
2022-12-08T21:47:48.855Z,62.38
2022-12-08T21:50:19.260Z,59.18
2022-12-08T21:52:50.336Z,66.92
2022-12-08T21:55:20.363Z,64.00
2022-12-08T21:57:50.171Z,66.47
2022-12-08T22:00:20.665Z,61.00
2022-12-08T22:02:50.663Z,55.28
2022-12-08T22:05:20.593Z,58.23
2022-12-08T22:07:50.057Z,59.38
2022-12-08T22:10:21.214Z,64.55
2022-12-08T22:12:51.079Z,48.20
2022-12-08T22:15:20.514Z,45.43
2022-12-08T22:17:50.370Z,77.90
2022-12-08T22:20:19.792Z,50.85
2022-12-08T22:22:49.591Z,51.50
2022-12-08T22:25:18.826Z,50.25
2022-12-08T22:27:48.649Z,71.47
2022-12-08T22:30:18.021Z,85.62
2022-12-08T22:32:48.035Z,96.20
2022-12-08T22:35:17.475Z,116.67
2022-12-08T22:37:49.798Z,115.08
2022-12-08T22:40:19.525Z,117.35
2022-12-08T22:42:49.155Z,122.45
2022-12-08T22:45:18.399Z,121.72
2022-12-08T22:47:47.806Z,126.25
2022-12-08T22:50:17.301Z,123.38
2022-12-08T22:52:46.593Z,123.15
2022-12-08T22:55:15.820Z,122.98
2022-12-08T22:57:45.298Z,131.82
2022-12-08T23:00:15.242Z,135.57
2022-12-08T23:02:45.598Z,147.32
2022-12-08T23:05:15.277Z,129.53
2022-12-08T23:07:44.989Z,137.82
2022-12-08T23:10:14.593Z,131.20
2022-12-08T23:12:44.101Z,141.15
2022-12-08T23:15:13.433Z,138.72
2022-12-08T23:17:43.041Z,143.22
2022-12-08T23:20:13.427Z,144.05
2022-12-08T23:22:42.817Z,136.20
2022-12-08T23:25:12.572Z,150.05
2022-12-08T23:27:41.936Z,138.55
2022-12-08T23:30:12.679Z,144.60
2022-12-08T23:32:42.537Z,140.25
2022-12-08T23:35:12.266Z,134.32
2022-12-08T23:37:41.959Z,128.07
2022-12-08T23:40:12.805Z,132.35
2022-12-08T23:42:42.496Z,133.15
2022-12-08T23:45:13.003Z,126.55
2022-12-08T23:47:42.391Z,136.43
2022-12-08T23:50:13.234Z,133.47
2022-12-08T23:52:42.602Z,141.43
2022-12-08T23:55:12.688Z,132.27
2022-12-08T23:57:42.019Z,129.03
